sensor_id;sensor_type;location;lat;lon;timestamp;temperature;humidity
12977;DHT22;6553;48.412;9.514;2024-03-23T00:54:02;19.20;69.70
12977;DHT22;6553;48.412;9.514;2024-03-23T00:56:29;19.20;69.80
12977;DHT22;6553;48.412;9.514;2024-03-23T00:58:55;19.20;70.00
12977;DHT22;6553;48.412;9.514;2024-03-23T01:01:20;19.20;70.50
12977;DHT22;6553;48.412;9.514;2024-03-23T01:03:46;19.20;70.40
12977;DHT22;6553;48.412;9.514;2024-03-23T01:06:12;19.20;70.40
12977;DHT22;6553;48.412;9.514;2024-03-23T01:08:38;19.20;70.10
12977;DHT22;6553;48.412;9.514;2024-03-23T01:11:04;19.20;69.90
12977;DHT22;6553;48.412;9.514;2024-03-23T01:13:30;19.20;70.00
12977;DHT22;6553;48.412;9.514;2024-03-23T01:15:56;19.20;70.00
12977;DHT22;6553;48.412;9.514;2024-03-23T01:18:23;19.20;69.70
12977;DHT22;6553;48.412;9.514;2024-03-23T01:20:51;19.20;70.70
12977;DHT22;6553;48.412;9.514;2024-03-23T01:23:17;19.20;71.00
12977;DHT22;6553;48.412;9.514;2024-03-23T01:25:43;19.20;71.30
12977;DHT22;6553;48.412;9.514;2024-03-23T01:28:08;19.20;71.30
12977;DHT22;6553;48.412;9.514;2024-03-23T01:30:35;19.20;71.20
12977;DHT22;6553;48.412;9.514;2024-03-23T01:33:01;19.10;72.80
12977;DHT22;6553;48.412;9.514;2024-03-23T01:35:28;19.20;72.30
12977;DHT22;6553;48.412;9.514;2024-03-23T01:37:54;19.20;72.50
12977;DHT22;6553;48.412;9.514;2024-03-23T01:40:20;19.20;73.00
12977;DHT22;6553;48.412;9.514;2024-03-23T01:43:01;19.20;72.30
12977;DHT22;6553;48.412;9.514;2024-03-23T01:45:31;19.20;73.60
12977;DHT22;6553;48.412;9.514;2024-03-23T01:47:57;19.20;72.50
12977;DHT22;6553;48.412;9.514;2024-03-23T01:50:24;19.20;72.50
12977;DHT22;6553;48.412;9.514;2024-03-23T01:52:50;19.20;73.60
12977;DHT22;6553;48.412;9.514;2024-03-23T01:55:16;19.10;73.50
12977;DHT22;6553;48.412;9.514;2024-03-23T01:57:43;19.20;72.80
12977;DHT22;6553;48.412;9.514;2024-03-23T02:00:09;19.20;75.10
12977;DHT22;6553;48.412;9.514;2024-03-23T02:02:44;19.10;74.60
12977;DHT22;6553;48.412;9.514;2024-03-23T02:05:11;19.20;74.50
12977;DHT22;6553;48.412;9.514;2024-03-23T02:07:41;19.20;73.10
12977;DHT22;6553;48.412;9.514;2024-03-23T02:10:11;19.20;73.50
12977;DHT22;6553;48.412;9.514;2024-03-23T02:12:40;19.10;73.40
12977;DHT22;6553;48.412;9.514;2024-03-23T02:15:06;19.20;73.30
12977;DHT22;6553;48.412;9.514;2024-03-23T02:17:35;19.20;74.40
12977;DHT22;6553;48.412;9.514;2024-03-23T02:20:02;19.10;73.60
12977;DHT22;6553;48.412;9.514;2024-03-23T02:22:38;19.20;73.40
12977;DHT22;6553;48.412;9.514;2024-03-23T02:25:05;19.20;74.20
12977;DHT22;6553;48.412;9.514;2024-03-23T02:27:32;19.10;70.60
12977;DHT22;6553;48.412;9.514;2024-03-23T02:29:59;19.20;70.30
12977;DHT22;6553;48.412;9.514;2024-03-23T02:32:24;19.20;70.30
12977;DHT22;6553;48.412;9.514;2024-03-23T02:34:50;19.20;70.50
12977;DHT22;6553;48.412;9.514;2024-03-23T02:37:16;19.20;70.20
12977;DHT22;6553;48.412;9.514;2024-03-23T02:39:41;19.20;70.30
12977;DHT22;6553;48.412;9.514;2024-03-23T02:42:07;19.10;70.10
12977;DHT22;6553;48.412;9.514;2024-03-23T02:44:33;19.10;70.20
12977;DHT22;6553;48.412;9.514;2024-03-23T02:46:58;19.20;70.30
12977;DHT22;6553;48.412;9.514;2024-03-23T02:49:25;19.20;70.60
12977;DHT22;6553;48.412;9.514;2024-03-23T02:51:51;19.20;70.30
12977;DHT22;6553;48.412;9.514;2024-03-23T02:54:16;19.20;70.30
12977;DHT22;6553;48.412;9.514;2024-03-23T02:56:42;19.20;70.20
12977;DHT22;6553;48.412;9.514;2024-03-23T02:59:08;19.10;70.60
12977;DHT22;6553;48.412;9.514;2024-03-23T03:01:33;19.20;71.20
12977;DHT22;6553;48.412;9.514;2024-03-23T03:04:00;19.20;71.20
12977;DHT22;6553;48.412;9.514;2024-03-23T03:06:26;19.10;71.00
12977;DHT22;6553;48.412;9.514;2024-03-23T03:08:52;19.10;70.80
12977;DHT22;6553;48.412;9.514;2024-03-23T03:11:18;19.20;70.50
12977;DHT22;6553;48.412;9.514;2024-03-23T03:13:44;19.10;70.20
12977;DHT22;6553;48.412;9.514;2024-03-23T03:16:12;19.20;70.10
12977;DHT22;6553;48.412;9.514;2024-03-23T03:18:39;19.20;69.70
12977;DHT22;6553;48.412;9.514;2024-03-23T03:21:06;19.20;69.70
12977;DHT22;6553;48.412;9.514;2024-03-23T03:23:37;19.20;69.00
12977;DHT22;6553;48.412;9.514;2024-03-23T03:26:06;19.20;68.40
12977;DHT22;6553;48.412;9.514;2024-03-23T03:28:32;19.20;67.90
12977;DHT22;6553;48.412;9.514;2024-03-23T03:30:59;19.20;67.60
12977;DHT22;6553;48.412;9.514;2024-03-23T03:33:26;19.20;67.00
12977;DHT22;6553;48.412;9.514;2024-03-23T03:35:52;19.20;66.70
12977;DHT22;6553;48.412;9.514;2024-03-23T03:38:19;19.20;66.40
12977;DHT22;6553;48.412;9.514;2024-03-23T03:40:44;19.20;66.40
12977;DHT22;6553;48.412;9.514;2024-03-23T03:43:10;19.20;66.20
12977;DHT22;6553;48.412;9.514;2024-03-23T03:45:36;19.10;66.00
12977;DHT22;6553;48.412;9.514;2024-03-23T03:48:02;19.10;66.00
12977;DHT22;6553;48.412;9.514;2024-03-23T03:50:28;19.10;66.00
12977;DHT22;6553;48.412;9.514;2024-03-23T03:52:54;19.10;66.00
12977;DHT22;6553;48.412;9.514;2024-03-23T03:55:19;19.20;66.10
12977;DHT22;6553;48.412;9.514;2024-03-23T03:57:45;19.20;66.10
12977;DHT22;6553;48.412;9.514;2024-03-23T04:00:11;19.10;66.00
12977;DHT22;6553;48.412;9.514;2024-03-23T04:02:38;19.10;65.90
12977;DHT22;6553;48.412;9.514;2024-03-23T04:05:04;19.20;65.90
12977;DHT22;6553;48.412;9.514;2024-03-23T04:07:31;19.20;66.00
12977;DHT22;6553;48.412;9.514;2024-03-23T04:09:57;19.10;65.80
12977;DHT22;6553;48.412;9.514;2024-03-23T04:12:23;19.20;66.00
12977;DHT22;6553;48.412;9.514;2024-03-23T04:14:49;19.10;65.90
12977;DHT22;6553;48.412;9.514;2024-03-23T04:17:15;19.20;65.90
12977;DHT22;6553;48.412;9.514;2024-03-23T04:19:41;19.10;65.90
12977;DHT22;6553;48.412;9.514;2024-03-23T04:22:07;19.20;65.90
12977;DHT22;6553;48.412;9.514;2024-03-23T04:24:33;19.10;65.80
12977;DHT22;6553;48.412;9.514;2024-03-23T04:26:59;19.10;65.70
12977;DHT22;6553;48.412;9.514;2024-03-23T04:29:25;19.20;65.90
12977;DHT22;6553;48.412;9.514;2024-03-23T04:31:52;19.10;65.70
12977;DHT22;6553;48.412;9.514;2024-03-23T04:34:18;19.10;65.70
12977;DHT22;6553;48.412;9.514;2024-03-23T04:36:44;19.10;65.70
12977;DHT22;6553;48.412;9.514;2024-03-23T04:39:10;19.10;65.80
12977;DHT22;6553;48.412;9.514;2024-03-23T04:41:35;19.10;65.60
12977;DHT22;6553;48.412;9.514;2024-03-23T04:44:01;19.10;65.70
12977;DHT22;6553;48.412;9.514;2024-03-23T04:46:27;19.10;65.70
12977;DHT22;6553;48.412;9.514;2024-03-23T04:48:53;19.10;65.60
12977;DHT22;6553;48.412;9.514;2024-03-23T04:51:24;19.10;65.70
12977;DHT22;6553;48.412;9.514;2024-03-23T04:53:50;19.10;65.70
12977;DHT22;6553;48.412;9.514;2024-03-23T04:56:17;19.10;65.80
12977;DHT22;6553;48.412;9.514;2024-03-23T04:58:43;19.10;65.80
12977;DHT22;6553;48.412;9.514;2024-03-23T05:01:09;19.10;65.80
12977;DHT22;6553;48.412;9.514;2024-03-23T05:03:37;19.10;65.80
12977;DHT22;6553;48.412;9.514;2024-03-23T05:06:02;19.10;65.80
12977;DHT22;6553;48.412;9.514;2024-03-23T05:08:28;19.10;65.70
12977;DHT22;6553;48.412;9.514;2024-03-23T05:10:54;19.10;65.90
12977;DHT22;6553;48.412;9.514;2024-03-23T05:13:20;19.10;66.70
12977;DHT22;6553;48.412;9.514;2024-03-23T05:15:54;19.10;65.70
12977;DHT22;6553;48.412;9.514;2024-03-23T05:18:21;19.10;65.80
12977;DHT22;6553;48.412;9.514;2024-03-23T05:20:47;19.10;65.80
12977;DHT22;6553;48.412;9.514;2024-03-23T05:23:12;19.10;65.80
12977;DHT22;6553;48.412;9.514;2024-03-23T05:25:38;19.10;65.90
12977;DHT22;6553;48.412;9.514;2024-03-23T05:28:04;19.10;65.90
12977;DHT22;6553;48.412;9.514;2024-03-23T05:30:30;19.10;65.90
12977;DHT22;6553;48.412;9.514;2024-03-23T05:32:56;19.10;65.90
12977;DHT22;6553;48.412;9.514;2024-03-23T05:35:22;19.10;66.00
12977;DHT22;6553;48.412;9.514;2024-03-23T05:37:48;19.10;65.90
12977;DHT22;6553;48.412;9.514;2024-03-23T05:40:13;19.10;66.00
12977;DHT22;6553;48.412;9.514;2024-03-23T05:42:41;19.10;66.00
12977;DHT22;6553;48.412;9.514;2024-03-23T05:45:07;19.10;66.00
12977;DHT22;6553;48.412;9.514;2024-03-23T05:47:33;19.10;66.00
12977;DHT22;6553;48.412;9.514;2024-03-23T05:49:59;19.10;66.00
12977;DHT22;6553;48.412;9.514;2024-03-23T05:52:25;19.10;66.00
12977;DHT22;6553;48.412;9.514;2024-03-23T05:54:51;19.10;66.00
12977;DHT22;6553;48.412;9.514;2024-03-23T05:57:17;19.10;66.00
12977;DHT22;6553;48.412;9.514;2024-03-23T05:59:44;19.10;66.00
12977;DHT22;6553;48.412;9.514;2024-03-23T06:02:10;19.10;66.00
12977;DHT22;6553;48.412;9.514;2024-03-23T06:04:36;19.20;66.10
12977;DHT22;6553;48.412;9.514;2024-03-23T06:07:02;19.10;66.10
12977;DHT22;6553;48.412;9.514;2024-03-23T06:09:31;19.10;66.20
12977;DHT22;6553;48.412;9.514;2024-03-23T06:11:57;19.10;66.30
12977;DHT22;6553;48.412;9.514;2024-03-23T06:14:23;19.10;66.30
12977;DHT22;6553;48.412;9.514;2024-03-23T06:16:48;19.10;66.20
12977;DHT22;6553;48.412;9.514;2024-03-23T06:19:14;19.20;66.40
12977;DHT22;6553;48.412;9.514;2024-03-23T06:21:44;19.20;66.50
12977;DHT22;6553;48.412;9.514;2024-03-23T06:24:11;19.10;66.40
12977;DHT22;6553;48.412;9.514;2024-03-23T06:26:38;19.10;66.50
12977;DHT22;6553;48.412;9.514;2024-03-23T06:29:04;19.20;66.60
12977;DHT22;6553;48.412;9.514;2024-03-23T06:31:31;19.20;66.60
12977;DHT22;6553;48.412;9.514;2024-03-23T06:33:57;19.20;66.50
12977;DHT22;6553;48.412;9.514;2024-03-23T06:36:23;19.10;66.60
12977;DHT22;6553;48.412;9.514;2024-03-23T06:38:49;19.20;66.70
12977;DHT22;6553;48.412;9.514;2024-03-23T06:41:15;19.20;66.60
12977;DHT22;6553;48.412;9.514;2024-03-23T06:43:41;19.20;66.70
12977;DHT22;6553;48.412;9.514;2024-03-23T06:46:07;19.10;66.60
12977;DHT22;6553;48.412;9.514;2024-03-23T06:48:33;19.20;66.70
12977;DHT22;6553;48.412;9.514;2024-03-23T06:50:58;19.20;66.80
12977;DHT22;6553;48.412;9.514;2024-03-23T06:53:24;19.20;66.80
12977;DHT22;6553;48.412;9.514;2024-03-23T06:55:52;19.20;66.90
12977;DHT22;6553;48.412;9.514;2024-03-23T06:58:23;19.10;66.80
12977;DHT22;6553;48.412;9.514;2024-03-23T07:00:50;19.20;67.00
12977;DHT22;6553;48.412;9.514;2024-03-23T07:03:19;19.10;66.90
12977;DHT22;6553;48.412;9.514;2024-03-23T07:05:46;19.20;67.10
12977;DHT22;6553;48.412;9.514;2024-03-23T07:08:12;19.20;67.00
12977;DHT22;6553;48.412;9.514;2024-03-23T07:10:41;19.20;67.20
12977;DHT22;6553;48.412;9.514;2024-03-23T07:13:07;19.20;67.10
12977;DHT22;6553;48.412;9.514;2024-03-23T07:15:33;19.20;67.30
12977;DHT22;6553;48.412;9.514;2024-03-23T07:17:59;19.20;67.20
12977;DHT22;6553;48.412;9.514;2024-03-23T07:20:25;19.20;67.20
12977;DHT22;6553;48.412;9.514;2024-03-23T07:22:51;19.20;67.30
12977;DHT22;6553;48.412;9.514;2024-03-23T07:25:16;19.20;67.40
12977;DHT22;6553;48.412;9.514;2024-03-23T07:27:42;19.10;67.30
12977;DHT22;6553;48.412;9.514;2024-03-23T07:30:08;19.10;67.40
12977;DHT22;6553;48.412;9.514;2024-03-23T07:32:35;19.20;67.50
12977;DHT22;6553;48.412;9.514;2024-03-23T07:35:01;19.20;67.60
12977;DHT22;6553;48.412;9.514;2024-03-23T07:37:28;19.20;67.70
12977;DHT22;6553;48.412;9.514;2024-03-23T07:39:54;19.20;67.70
12977;DHT22;6553;48.412;9.514;2024-03-23T07:42:19;19.20;67.70
12977;DHT22;6553;48.412;9.514;2024-03-23T07:44:45;19.20;67.70
12977;DHT22;6553;48.412;9.514;2024-03-23T07:47:12;19.20;67.80
12977;DHT22;6553;48.412;9.514;2024-03-23T07:49:37;19.20;67.90
12977;DHT22;6553;48.412;9.514;2024-03-23T07:52:05;19.20;67.90
12977;DHT22;6553;48.412;9.514;2024-03-23T07:54:31;19.20;67.90
12977;DHT22;6553;48.412;9.514;2024-03-23T07:56:57;19.20;67.90
12977;DHT22;6553;48.412;9.514;2024-03-23T07:59:23;19.20;67.90
12977;DHT22;6553;48.412;9.514;2024-03-23T08:01:49;19.20;67.90
12977;DHT22;6553;48.412;9.514;2024-03-23T08:04:15;19.20;67.90
12977;DHT22;6553;48.412;9.514;2024-03-23T08:06:41;19.20;67.90
12977;DHT22;6553;48.412;9.514;2024-03-23T08:09:07;19.30;68.00
12977;DHT22;6553;48.412;9.514;2024-03-23T08:11:32;19.30;68.10
12977;DHT22;6553;48.412;9.514;2024-03-23T08:14:00;19.30;68.10
12977;DHT22;6553;48.412;9.514;2024-03-23T08:16:27;19.30;68.20
12977;DHT22;6553;48.412;9.514;2024-03-23T08:18:53;19.30;68.20
12977;DHT22;6553;48.412;9.514;2024-03-23T08:21:22;19.30;68.20
12977;DHT22;6553;48.412;9.514;2024-03-23T08:23:48;19.30;68.30
12977;DHT22;6553;48.412;9.514;2024-03-23T08:26:15;19.30;68.40
12977;DHT22;6553;48.412;9.514;2024-03-23T08:28:41;19.30;68.50
12977;DHT22;6553;48.412;9.514;2024-03-23T08:31:09;19.30;68.60
12977;DHT22;6553;48.412;9.514;2024-03-23T08:33:38;19.30;68.50
12977;DHT22;6553;48.412;9.514;2024-03-23T08:36:07;19.30;68.80
12977;DHT22;6553;48.412;9.514;2024-03-23T08:38:34;19.30;68.70
12977;DHT22;6553;48.412;9.514;2024-03-23T08:41:08;19.20;68.80
12977;DHT22;6553;48.412;9.514;2024-03-23T08:43:37;19.30;68.80
12977;DHT22;6553;48.412;9.514;2024-03-23T08:46:07;19.30;69.70
12977;DHT22;6553;48.412;9.514;2024-03-23T08:48:37;19.30;68.90
12977;DHT22;6553;48.412;9.514;2024-03-23T08:51:06;19.40;68.90
12977;DHT22;6553;48.412;9.514;2024-03-23T08:53:37;19.40;69.10
12977;DHT22;6553;48.412;9.514;2024-03-23T08:56:05;19.40;69.60
12977;DHT22;6553;48.412;9.514;2024-03-23T08:58:33;19.40;69.60
12977;DHT22;6553;48.412;9.514;2024-03-23T09:01:10;19.30;69.60
12977;DHT22;6553;48.412;9.514;2024-03-23T09:03:40;19.40;69.80
12977;DHT22;6553;48.412;9.514;2024-03-23T09:06:13;19.40;69.80
12977;DHT22;6553;48.412;9.514;2024-03-23T09:08:40;19.40;70.00
12977;DHT22;6553;48.412;9.514;2024-03-23T09:11:07;19.40;70.00
12977;DHT22;6553;48.412;9.514;2024-03-23T09:13:35;19.40;70.00
12977;DHT22;6553;48.412;9.514;2024-03-23T09:16:02;19.40;70.00
12977;DHT22;6553;48.412;9.514;2024-03-23T09:18:31;19.40;70.20
12977;DHT22;6553;48.412;9.514;2024-03-23T09:21:01;19.40;70.30
12977;DHT22;6553;48.412;9.514;2024-03-23T09:23:28;19.40;70.40
12977;DHT22;6553;48.412;9.514;2024-03-23T09:25:54;19.40;71.40
12977;DHT22;6553;48.412;9.514;2024-03-23T09:28:20;19.40;70.50
12977;DHT22;6553;48.412;9.514;2024-03-23T09:30:46;19.40;70.60
12977;DHT22;6553;48.412;9.514;2024-03-23T09:33:12;19.40;71.10
12977;DHT22;6553;48.412;9.514;2024-03-23T09:35:39;19.40;71.20
12977;DHT22;6553;48.412;9.514;2024-03-23T09:38:06;19.40;71.50
12977;DHT22;6553;48.412;9.514;2024-03-23T09:40:41;19.40;71.60
12977;DHT22;6553;48.412;9.514;2024-03-23T09:43:08;19.40;71.70
12977;DHT22;6553;48.412;9.514;2024-03-23T09:45:39;19.40;71.80
12977;DHT22;6553;48.412;9.514;2024-03-23T09:48:08;19.30;72.10
12977;DHT22;6553;48.412;9.514;2024-03-23T09:50:39;19.30;72.10
12977;DHT22;6553;48.412;9.514;2024-03-23T09:53:12;19.30;72.60
12977;DHT22;6553;48.412;9.514;2024-03-23T09:55:43;19.40;73.00
12977;DHT22;6553;48.412;9.514;2024-03-23T09:58:13;19.40;72.90
12977;DHT22;6553;48.412;9.514;2024-03-23T10:00:40;19.40;73.30
12977;DHT22;6553;48.412;9.514;2024-03-23T10:03:06;19.40;73.40
12977;DHT22;6553;48.412;9.514;2024-03-23T10:05:33;19.40;73.60
12977;DHT22;6553;48.412;9.514;2024-03-23T10:10:43;19.30;74.00
12977;DHT22;6553;48.412;9.514;2024-03-23T10:13:10;19.40;74.80
12977;DHT22;6553;48.412;9.514;2024-03-23T10:15:38;19.40;74.70
12977;DHT22;6553;48.412;9.514;2024-03-23T10:18:20;19.40;74.30
12977;DHT22;6553;48.412;9.514;2024-03-23T10:23:35;19.40;78.00
12977;DHT22;6553;48.412;9.514;2024-03-23T10:26:19;19.40;73.10
12977;DHT22;6553;48.412;9.514;2024-03-23T10:29:01;19.40;73.10
12977;DHT22;6553;48.412;9.514;2024-03-23T10:31:29;19.40;73.00
12977;DHT22;6553;48.412;9.514;2024-03-23T10:33:56;19.40;72.50
12977;DHT22;6553;48.412;9.514;2024-03-23T10:36:23;19.40;72.20
12977;DHT22;6553;48.412;9.514;2024-03-23T10:38:51;19.50;71.80
12977;DHT22;6553;48.412;9.514;2024-03-23T10:41:18;19.40;71.10
12977;DHT22;6553;48.412;9.514;2024-03-23T10:43:47;19.50;71.20
12977;DHT22;6553;48.412;9.514;2024-03-23T10:46:14;19.40;71.30
12977;DHT22;6553;48.412;9.514;2024-03-23T10:48:40;19.50;71.20
12977;DHT22;6553;48.412;9.514;2024-03-23T10:51:10;19.50;71.40
12977;DHT22;6553;48.412;9.514;2024-03-23T10:53:36;19.40;71.40
12977;DHT22;6553;48.412;9.514;2024-03-23T10:56:02;19.40;71.60
12977;DHT22;6553;48.412;9.514;2024-03-23T10:58:41;19.40;71.60
12977;DHT22;6553;48.412;9.514;2024-03-23T11:01:12;19.40;71.60
12977;DHT22;6553;48.412;9.514;2024-03-23T11:03:44;19.50;71.30
12977;DHT22;6553;48.412;9.514;2024-03-23T11:06:10;19.40;71.80
12977;DHT22;6553;48.412;9.514;2024-03-23T11:09:03;19.50;72.40
12977;DHT22;6553;48.412;9.514;2024-03-23T11:11:29;19.40;72.20
12977;DHT22;6553;48.412;9.514;2024-03-23T11:13:57;19.40;72.70
12977;DHT22;6553;48.412;9.514;2024-03-23T11:16:29;19.40;73.30
12977;DHT22;6553;48.412;9.514;2024-03-23T11:19:39;19.40;76.00
12977;DHT22;6553;48.412;9.514;2024-03-23T11:22:05;19.40;78.60
12977;DHT22;6553;48.412;9.514;2024-03-23T11:24:32;19.40;74.30
12977;DHT22;6553;48.412;9.514;2024-03-23T11:26:58;19.40;74.10
12977;DHT22;6553;48.412;9.514;2024-03-23T11:29:29;19.40;73.60
12977;DHT22;6553;48.412;9.514;2024-03-23T11:31:56;19.50;74.10
12977;DHT22;6553;48.412;9.514;2024-03-23T11:34:23;19.50;73.60
12977;DHT22;6553;48.412;9.514;2024-03-23T11:36:49;19.50;73.30
12977;DHT22;6553;48.412;9.514;2024-03-23T11:39:20;19.50;73.10
12977;DHT22;6553;48.412;9.514;2024-03-23T11:41:51;19.50;73.30
12977;DHT22;6553;48.412;9.514;2024-03-23T11:44:27;19.40;74.50
12977;DHT22;6553;48.412;9.514;2024-03-23T11:46:53;19.40;77.00
12977;DHT22;6553;48.412;9.514;2024-03-23T11:49:29;19.50;75.40
12977;DHT22;6553;48.412;9.514;2024-03-23T11:51:56;19.40;75.80
12977;DHT22;6553;48.412;9.514;2024-03-23T11:54:26;19.40;78.10
12977;DHT22;6553;48.412;9.514;2024-03-23T11:57:04;19.40;75.90
12977;DHT22;6553;48.412;9.514;2024-03-23T11:59:40;19.40;80.10
12977;DHT22;6553;48.412;9.514;2024-03-23T12:02:11;19.40;76.00
12977;DHT22;6553;48.412;9.514;2024-03-23T12:04:41;19.30;76.50
12977;DHT22;6553;48.412;9.514;2024-03-23T12:09:41;19.40;77.00
12977;DHT22;6553;48.412;9.514;2024-03-23T12:12:17;19.40;77.60
12977;DHT22;6553;48.412;9.514;2024-03-23T12:14:45;19.40;75.50
12977;DHT22;6553;48.412;9.514;2024-03-23T12:17:13;19.30;74.10
12977;DHT22;6553;48.412;9.514;2024-03-23T12:19:40;19.40;74.60
12977;DHT22;6553;48.412;9.514;2024-03-23T12:22:08;19.40;73.30
12977;DHT22;6553;48.412;9.514;2024-03-23T12:24:35;19.40;73.20
12977;DHT22;6553;48.412;9.514;2024-03-23T12:27:02;19.40;73.10
12977;DHT22;6553;48.412;9.514;2024-03-23T12:29:31;19.40;73.40
12977;DHT22;6553;48.412;9.514;2024-03-23T12:32:02;19.40;73.40
12977;DHT22;6553;48.412;9.514;2024-03-23T12:34:29;19.40;74.40
12977;DHT22;6553;48.412;9.514;2024-03-23T12:36:57;19.40;74.50
12977;DHT22;6553;48.412;9.514;2024-03-23T12:39:23;19.40;75.20
12977;DHT22;6553;48.412;9.514;2024-03-23T12:41:50;19.40;74.20
12977;DHT22;6553;48.412;9.514;2024-03-23T12:44:17;19.40;74.00
12977;DHT22;6553;48.412;9.514;2024-03-23T12:46:43;19.40;74.10
12977;DHT22;6553;48.412;9.514;2024-03-23T12:49:10;19.30;74.80
12977;DHT22;6553;48.412;9.514;2024-03-23T12:51:36;19.40;74.70
12977;DHT22;6553;48.412;9.514;2024-03-23T12:54:02;19.30;75.30
12977;DHT22;6553;48.412;9.514;2024-03-23T12:56:28;19.40;76.20
12977;DHT22;6553;48.412;9.514;2024-03-23T12:58:55;19.30;78.60
12977;DHT22;6553;48.412;9.514;2024-03-23T13:01:26;19.40;75.00
12977;DHT22;6553;48.412;9.514;2024-03-23T13:03:52;19.40;74.50
12977;DHT22;6553;48.412;9.514;2024-03-23T13:06:18;19.30;74.90
12977;DHT22;6553;48.412;9.514;2024-03-23T13:08:45;19.40;74.90
12977;DHT22;6553;48.412;9.514;2024-03-23T13:11:15;19.40;75.40
12977;DHT22;6553;48.412;9.514;2024-03-23T13:13:41;19.30;74.80
12977;DHT22;6553;48.412;9.514;2024-03-23T13:16:08;19.30;74.90
12977;DHT22;6553;48.412;9.514;2024-03-23T13:18:33;19.40;75.00
12977;DHT22;6553;48.412;9.514;2024-03-23T13:20:59;19.40;75.30
12977;DHT22;6553;48.412;9.514;2024-03-23T13:23:25;19.40;74.80
12977;DHT22;6553;48.412;9.514;2024-03-23T13:25:52;19.40;75.30
12977;DHT22;6553;48.412;9.514;2024-03-23T13:28:19;19.40;75.50
12977;DHT22;6553;48.412;9.514;2024-03-23T13:30:53;19.40;75.70
12977;DHT22;6553;48.412;9.514;2024-03-23T13:33:20;19.40;75.70
12977;DHT22;6553;48.412;9.514;2024-03-23T13:35:53;19.40;75.30
12977;DHT22;6553;48.412;9.514;2024-03-23T13:38:23;19.40;74.30
12977;DHT22;6553;48.412;9.514;2024-03-23T13:40:59;19.40;73.80
12977;DHT22;6553;48.412;9.514;2024-03-23T13:43:27;19.40;74.20
12977;DHT22;6553;48.412;9.514;2024-03-23T13:45:55;19.40;74.10
12977;DHT22;6553;48.412;9.514;2024-03-23T13:48:26;19.40;73.80
12977;DHT22;6553;48.412;9.514;2024-03-23T13:51:02;19.40;73.40
12977;DHT22;6553;48.412;9.514;2024-03-23T13:53:29;19.40;73.50
12977;DHT22;6553;48.412;9.514;2024-03-23T13:55:56;19.40;73.10
12977;DHT22;6553;48.412;9.514;2024-03-23T13:58:22;19.40;73.30
12977;DHT22;6553;48.412;9.514;2024-03-23T14:00:51;19.40;73.10
12977;DHT22;6553;48.412;9.514;2024-03-23T14:03:17;19.40;72.80
12977;DHT22;6553;48.412;9.514;2024-03-23T14:05:46;19.50;73.00
12977;DHT22;6553;48.412;9.514;2024-03-23T14:08:15;19.40;72.30
12977;DHT22;6553;48.412;9.514;2024-03-23T14:10:41;19.40;72.90
12977;DHT22;6553;48.412;9.514;2024-03-23T14:13:07;19.40;72.60
12977;DHT22;6553;48.412;9.514;2024-03-23T14:15:33;19.40;72.50
12977;DHT22;6553;48.412;9.514;2024-03-23T14:17:59;19.40;72.40
12977;DHT22;6553;48.412;9.514;2024-03-23T14:20:25;19.40;72.60
12977;DHT22;6553;48.412;9.514;2024-03-23T14:22:52;19.40;72.80
12977;DHT22;6553;48.412;9.514;2024-03-23T14:25:18;19.40;72.20
12977;DHT22;6553;48.412;9.514;2024-03-23T14:27:45;19.40;72.20
12977;DHT22;6553;48.412;9.514;2024-03-23T14:30:12;19.40;72.30
12977;DHT22;6553;48.412;9.514;2024-03-23T14:32:39;19.40;72.20
12977;DHT22;6553;48.412;9.514;2024-03-23T14:35:06;19.40;72.20
12977;DHT22;6553;48.412;9.514;2024-03-23T14:37:39;19.40;72.20
12977;DHT22;6553;48.412;9.514;2024-03-23T14:40:08;19.40;72.20
12977;DHT22;6553;48.412;9.514;2024-03-23T14:42:34;19.40;72.10
12977;DHT22;6553;48.412;9.514;2024-03-23T14:45:00;19.40;71.70
12977;DHT22;6553;48.412;9.514;2024-03-23T14:47:25;19.40;71.80
12977;DHT22;6553;48.412;9.514;2024-03-23T14:49:51;19.40;71.70
12977;DHT22;6553;48.412;9.514;2024-03-23T14:52:17;19.40;71.30
12977;DHT22;6553;48.412;9.514;2024-03-23T14:54:44;19.40;71.60
12977;DHT22;6553;48.412;9.514;2024-03-23T14:57:10;19.40;71.40
12977;DHT22;6553;48.412;9.514;2024-03-23T14:59:36;19.40;71.40
12977;DHT22;6553;48.412;9.514;2024-03-23T15:02:08;19.40;71.30
12977;DHT22;6553;48.412;9.514;2024-03-23T15:04:34;19.40;71.20
12977;DHT22;6553;48.412;9.514;2024-03-23T15:07:01;19.30;71.30
12977;DHT22;6553;48.412;9.514;2024-03-23T15:09:26;19.30;71.20
12977;DHT22;6553;48.412;9.514;2024-03-23T15:11:52;19.40;70.90
12977;DHT22;6553;48.412;9.514;2024-03-23T15:14:20;19.40;70.90
12977;DHT22;6553;48.412;9.514;2024-03-23T15:16:46;19.40;71.60
12977;DHT22;6553;48.412;9.514;2024-03-23T15:19:14;19.40;70.60
12977;DHT22;6553;48.412;9.514;2024-03-23T15:21:41;19.40;70.80
12977;DHT22;6553;48.412;9.514;2024-03-23T15:24:08;19.40;70.70
12977;DHT22;6553;48.412;9.514;2024-03-23T15:26:39;19.30;70.60
12977;DHT22;6553;48.412;9.514;2024-03-23T15:29:07;19.30;70.40
12977;DHT22;6553;48.412;9.514;2024-03-23T15:31:37;19.30;70.50
12977;DHT22;6553;48.412;9.514;2024-03-23T15:34:02;19.30;70.50
12977;DHT22;6553;48.412;9.514;2024-03-23T15:36:29;19.30;70.50
12977;DHT22;6553;48.412;9.514;2024-03-23T15:38:55;19.30;70.40
12977;DHT22;6553;48.412;9.514;2024-03-23T15:41:21;19.30;70.20
12977;DHT22;6553;48.412;9.514;2024-03-23T15:43:49;19.30;70.20
12977;DHT22;6553;48.412;9.514;2024-03-23T15:46:14;19.30;70.20
12977;DHT22;6553;48.412;9.514;2024-03-23T15:48:41;19.30;70.10
12977;DHT22;6553;48.412;9.514;2024-03-23T15:51:12;19.30;70.00
12977;DHT22;6553;48.412;9.514;2024-03-23T15:53:38;19.30;69.90
12977;DHT22;6553;48.412;9.514;2024-03-23T15:56:04;19.30;69.80
12977;DHT22;6553;48.412;9.514;2024-03-23T15:58:31;19.30;69.80
12977;DHT22;6553;48.412;9.514;2024-03-23T16:01:03;19.30;69.70
12977;DHT22;6553;48.412;9.514;2024-03-23T16:03:31;19.30;69.60
12977;DHT22;6553;48.412;9.514;2024-03-23T16:08:26;19.30;69.70
12977;DHT22;6553;48.412;9.514;2024-03-23T16:10:52;19.30;69.70
12977;DHT22;6553;48.412;9.514;2024-03-23T16:13:20;19.30;69.60
12977;DHT22;6553;48.412;9.514;2024-03-23T16:15:56;19.30;69.80
12977;DHT22;6553;48.412;9.514;2024-03-23T16:18:22;19.30;69.60
12977;DHT22;6553;48.412;9.514;2024-03-23T16:21:05;19.30;69.70
12977;DHT22;6553;48.412;9.514;2024-03-23T16:23:34;19.30;69.70
12977;DHT22;6553;48.412;9.514;2024-03-23T16:26:10;19.30;69.80
12977;DHT22;6553;48.412;9.514;2024-03-23T16:28:38;19.20;69.40
12977;DHT22;6553;48.412;9.514;2024-03-23T16:31:07;19.20;69.60
12977;DHT22;6553;48.412;9.514;2024-03-23T16:33:35;19.20;69.70
12977;DHT22;6553;48.412;9.514;2024-03-23T16:36:09;19.20;69.60
12977;DHT22;6553;48.412;9.514;2024-03-23T16:38:40;19.30;69.80
12977;DHT22;6553;48.412;9.514;2024-03-23T16:41:09;19.20;69.70
12977;DHT22;6553;48.412;9.514;2024-03-23T16:43:39;19.20;69.70
12977;DHT22;6553;48.412;9.514;2024-03-23T16:46:12;19.20;69.70
12977;DHT22;6553;48.412;9.514;2024-03-23T16:48:41;19.20;69.60
12977;DHT22;6553;48.412;9.514;2024-03-23T16:51:09;19.20;69.60